Aktualne dane pomiarowe

Uwaga, wersja testowa! Automatyczne pobieranie danych za pomocą narzędzi lub skryptów to umożliwiających jest zabronione.

Dane meteo z obszaru Polski uzyskane na podstawie depesz SYNOP pobieranych co godzinę z NWS. Najedź myszką na symbol przedstawiony w tabeli, aby uzyskać informacje co do jego znaczenia. Prosimy pamiętać, że to testowa wersja strony, która jeszcze nie jest ukończona. Stworzono również jest krótki FAQ dotyczący korzystania z tej podstrony Anomalie temperatury w chwili obecnej odniesione są do okresu referencyjnego 1951-2016. Okres ten będzie później zmieniony na 1981-2010. Kliknij ikonę aby pobrać plik CSV. Kliknij ikonę aby wygenerować mapę synoptyczną dla danego terminu.

Wybierz Datę:    

        

Wieluń (12455)

Dane terminowe dla wybranej stacji. Kliknij datę, aby otrzymać dane z tego terminu dla wszystkich stacji.

TemperaturaZachmurzenieWiatrCiśnienieOpadyPogoda
 Data t td wb tx tn tg rh  Nt Nl Cl Cm Ch ws wd g1 g2 wx mslp ppp ch 24h 12h t ww ww w1 w2  
2019-07-04 23:00:00 13.9 3.6 8.4--- 5040.0wx-wxwx2wx---1017.2 993.4 -0.9---------
2019-07-04 22:00:00 13.6 3.9 8.4--- 5245.0wx-wxwx1wx--11017.5 993.7 -0.7---------
2019-07-04 21:00:00 15.3 3.4 9.1--- 4540.0wx-wxwx2wx--21017.6 993.9 -0.7---------
2019-07-04 20:00:00 15.5 3.3 9.1--- 4445.0wx-wxwx1wx--11018.0 994.3 -0.7---------
2019-07-04 19:00:00 17.7 2.0 9.8--- 3550.0wx-wxwx1wx--11017.9 994.4 -1.1---------
2019-07-04 18:00:00 20.7 1.5 11.0 22.5 15.7- 2845.0wx-wxwx2wx-1021017.9 994.6 -1.2- 0.012------
2019-07-04 17:00:00 21.6 1.8 11.5--- 2735.0wx-wx3wx--31018.2 995.0 -1.2---------
2019-07-04 16:00:00 22.2 2.3 11.9--- 2735.0wxwxwxwx5wx---1018.7 995.5 -1.2---------
2019-07-04 15:00:00 22.2 3.3 12.3--- 2929.0wxwxwxwx3wx91031019.0 995.8 -1.5---------
2019-07-04 14:00:00 22.0 3.1 12.1--- 2930.0wxwxwxwx4wx-1041019.4 996.2 -1.6---------
2019-07-04 13:00:00 21.3 3.5 12.0--- 3130.0wxwxwxwxwx5wx-1051020.0 996.7 -1.3---------
2019-07-04 12:00:00 20.8 3.9 11.9--- 3330.0wxwxwxwxwx5wx-1151020.6 997.3 -0.7- 0.06------
2019-07-04 11:00:00 20.0 4.1 11.6--- 3530.0wxwxwx5wx101151021.2 997.8 -0.4---------
2019-07-04 10:00:00 18.5 3.9 10.8--- 3830.0wxwxwx4wx9941021.5 998.0 -0.4---------
2019-07-04 09:00:00 19.3 5.7 11.9--- 4130.0wxwxwx4wx--41021.5 998.0 -0.2---------
2019-07-04 08:00:00 17.8 5.0 10.9--- 4335.0wxwxwx4wx--41021.8 998.2 0.2---------
2019-07-04 07:00:00 16.8 4.8 10.3--- 4535.0wxwxwxwx4wx---1022.1 998.4 0.4---------
2019-07-04 06:00:00 15.7 6.4 10.5 18.5 8.6 5 5440.0wx-wx3wx--31022.0 998.2 0.3- 0.012----- 11.7
2019-07-04 05:00:00 13.0 7.9 9.9--- 7140.0wx-wx2wx--21022.0 998.0 0.1---------
2019-07-04 04:00:00 10.6 5.8 7.7--- 7240.0wx-wx2wx--21022.2 998.0 0.3---------
2019-07-04 03:00:00 9.3 4.9 6.7--- 7435.0wx-wx1wx--11022.2 997.9 0.2---------
2019-07-04 02:00:00 8.8 4.8 6.4--- 7635.0wx-wx1wx--11022.2 997.9 0.2---------
2019-07-04 01:00:00 9.1 4.5 6.4--- 7335.0wx-1wx--11022.0 997.7 0.0---------
2019-07-04 00:00:00 10.4 4.7 7.1--- 6840.0wx-2wx--21021.9 997.7 0.1- 0.06------
2019-07-03 23:00:00 10.6 4.7 7.2--- 6745.0wx-2wx--21021.9 997.7 0.3---------
2019-07-03 22:00:00 11.2 4.9 7.6--- 6545.0wx-wx1wx--11021.8 997.7 1.0---------
2019-07-03 21:00:00 12.9 4.8 8.4--- 5845.0wxwxwxwx1wx--11021.6 997.6 1.1---------
2019-07-03 20:00:00 15.6 3.7 9.3--- 4520.0wxwxwxwx1wx--11021.2 997.4 0.9---------
2019-07-03 19:00:00 16.6 2.9 9.5--- 4045.0wxwxwx2wx--21020.4 996.7 0.3---------
2019-07-03 18:00:00 18.5 2.3 10.3 20.7 14.4- 3450.0wxwxwx3wx-931020.0 996.5 0.1- 0.012------
2019-07-03 17:00:00 18.9 1.8 10.3--- 3245.0wxwxwx4wx-841020.0 996.5 -0.2---------
2019-07-03 16:00:00 19.2 1.6 10.3--- 3140.0wxwxwx4wx--41019.8 996.4 -0.5---------
2019-07-03 15:00:00 19.3 2.2 10.6--- 3250.0wxwxwx3wx-931019.8 996.4 -0.6---------
2019-07-03 14:00:00 19.0 1.9 10.4--- 3235.0wxwxwx4wx-941020.2 996.7 -0.2---------
2019-07-03 13:00:00 18.7 1.7 10.1--- 3235.0wxwxwx4wx-941020.4 996.9 0.0---------
2019-07-03 12:00:00 19.6 2.4 10.8--- 3235.0wxwxwx4wx---1020.4 997.0 -0.1---------
2019-07-03 11:00:00 19.0 2.3 10.5--- 3335.0wxwxwx5wx-951020.4 996.9 -0.3---------
2019-07-03 10:00:00 18.5 2.7 10.4--- 3535.0wxwxwx4wx--41020.4 996.9 0.0---------
2019-07-03 09:00:00 16.5 4.5 10.1--- 4530.0wxwxwx4wx---1020.8 997.1 0.5---------
2019-07-03 08:00:00 16.5 5.4 10.4--- 4835.0wxwxwx4wx--41020.9 997.2 1.0---------
2019-07-03 07:00:00 15.7 6.7 10.6--- 5535.0wxwxwx3wx--31020.6 996.9 0.9---------
2019-07-03 06:00:00 14.5 6.6 10.0 21.4 9.6 8 5930.0wx-3wx--31020.4 996.6 0.6- 0.012----- 11.4
2019-07-03 05:00:00 13.0 6.6 9.3--- 6535.0wx-3wx--31020.1 996.2 0.4---------
2019-07-03 04:00:00 11.0 7.5 8.8--- 7930.0wx-1wx--11020.1 996.0 0.5---------
2019-07-03 03:00:00 9.7 6.6 7.7--- 8135.0wx-wx2wx--21020.2 996.0 0.6---------
2019-07-03 02:00:00 10.6 6.7 8.2--- 7740.0wx-wx2wx--21019.9 995.8 0.7---------
2019-07-03 01:00:00 11.4 7.1 8.8--- 7540.0wx-wx1wx--11019.6 995.5 0.6---------
2019-07-03 00:00:00 12.7 8.0 9.8--- 7330.0wx-wx1wx--11019.3 995.4 0.8- 0.06------
1.2 ms

 

Print Friendly, PDF & Email